createdAt,value
2022-09-06T00:01:14.865Z,100261.16
2022-09-06T00:03:42.066Z,100256.72
2022-09-06T00:06:15.635Z,100254.06
2022-09-06T00:08:45.162Z,100254.13
2022-09-06T00:11:19.423Z,100250.53
2022-09-06T00:13:47.806Z,100247.97
2022-09-06T00:16:28.549Z,100256.56
2022-09-06T00:19:04.490Z,100257.53
2022-09-06T00:21:36.326Z,100255.06
2022-09-06T00:24:06.073Z,100257.66
2022-09-06T00:26:36.654Z,100257.56
2022-09-06T00:29:04.814Z,100252.47
2022-09-06T00:31:33.094Z,100248.34
2022-09-06T00:34:02.935Z,100256.31
2022-09-06T00:36:36.006Z,100264.31
2022-09-06T00:39:07.646Z,100260.88
2022-09-06T00:41:35.739Z,100257.34
2022-09-06T00:44:07.797Z,100258.97
2022-09-06T00:46:45.814Z,100261.94
2022-09-06T00:49:35.311Z,100266.59
2022-09-06T00:52:09.749Z,100256.22
2022-09-06T00:54:40.472Z,100259.88
2022-09-06T00:57:08.721Z,100253.69
2022-09-06T00:59:37.896Z,100264.63
2022-09-06T01:02:24.291Z,100260.38
2022-09-06T01:04:52.697Z,100258.69
2022-09-06T01:07:29.421Z,100263.94
2022-09-06T01:10:16.910Z,100253.59
2022-09-06T01:13:22.585Z,100251.88
2022-09-06T01:16:33.333Z,100247.84
2022-09-06T01:19:37.714Z,100247.72
2022-09-06T01:22:47.068Z,100231.06
2022-09-06T01:25:52.570Z,100231.19
2022-09-06T01:28:46.448Z,100229.59
2022-09-06T01:31:48.462Z,100221.78
2022-09-06T01:34:31.592Z,100219.22
2022-09-06T01:37:10.980Z,100214.03
2022-09-06T01:39:41.906Z,100204.78
2022-09-06T01:42:31.168Z,100199.47
2022-09-06T01:45:11.461Z,100199.72
2022-09-06T01:48:10.283Z,100211.50
2022-09-06T01:50:46.616Z,100209.25
2022-09-06T01:53:55.187Z,100213.13
2022-09-06T01:57:02.581Z,100234.78
2022-09-06T01:59:35.611Z,100230.34
2022-09-06T02:02:34.109Z,100243.06
2022-09-06T02:05:18.989Z,100235.31
2022-09-06T02:07:49.725Z,100242.38
2022-09-06T02:10:37.628Z,100239.34
2022-09-06T02:13:15.986Z,100245.91
2022-09-06T02:15:58.898Z,100244.47
2022-09-06T02:19:01.057Z,100242.84
2022-09-06T02:21:40.587Z,100239.19
2022-09-06T02:24:23.483Z,100248.31
2022-09-06T02:26:54.816Z,100243.88
2022-09-06T02:29:35.538Z,100248.97
2022-09-06T02:32:02.825Z,100247.78
2022-09-06T02:34:37.161Z,100241.38
2022-09-06T02:37:06.716Z,100241.09
2022-09-06T02:39:34.196Z,100243.91
2022-09-06T02:42:12.875Z,100237.66
2022-09-06T02:44:41.036Z,100235.81
2022-09-06T02:47:17.012Z,100234.28
2022-09-06T02:49:57.905Z,100229.00
2022-09-06T02:52:24.963Z,100224.47
2022-09-06T02:54:54.146Z,100221.78
2022-09-06T02:57:30.048Z,100220.75
2022-09-06T02:59:57.051Z,100218.94
2022-09-06T03:02:26.359Z,100216.94
2022-09-06T03:04:55.642Z,100216.97
2022-09-06T03:07:26.632Z,100200.91
2022-09-06T03:10:10.743Z,100198.91
2022-09-06T03:12:38.673Z,100197.94
2022-09-06T03:15:09.221Z,100194.28
2022-09-06T03:17:41.975Z,100199.53
2022-09-06T03:20:23.327Z,100212.22
2022-09-06T03:22:50.391Z,100218.25
2022-09-06T03:25:36.293Z,100219.72
2022-09-06T03:28:10.835Z,100211.72
2022-09-06T03:30:38.119Z,100210.94
2022-09-06T03:33:07.674Z,100206.19
2022-09-06T03:35:34.808Z,100207.13
2022-09-06T03:38:08.272Z,100206.56
2022-09-06T03:40:36.679Z,100206.34
2022-09-06T03:43:05.914Z,100213.09
2022-09-06T03:45:41.304Z,100203.81
2022-09-06T03:48:10.485Z,100210.75
2022-09-06T03:50:38.743Z,100203.97
2022-09-06T03:53:11.090Z,100203.06
2022-09-06T03:55:48.964Z,100204.41
2022-09-06T03:58:17.832Z,100197.38
2022-09-06T04:00:45.436Z,100196.06
2022-09-06T04:03:15.979Z,100206.16
2022-09-06T04:05:47.083Z,100202.13
2022-09-06T04:08:17.192Z,100198.25
2022-09-06T04:10:53.503Z,100211.41
2022-09-06T04:13:29.639Z,100200.59
2022-09-06T04:16:00.108Z,100200.50
2022-09-06T04:18:30.528Z,100202.09
2022-09-06T04:21:07.532Z,100213.38
2022-09-06T04:23:39.659Z,100212.06
2022-09-06T04:26:13.401Z,100214.53
2022-09-06T04:28:43.743Z,100213.13
2022-09-06T04:31:15.066Z,100221.63
2022-09-06T04:33:44.143Z,100210.53
2022-09-06T04:36:19.263Z,100215.28
2022-09-06T04:38:48.299Z,100223.91
2022-09-06T04:41:17.363Z,100217.53
2022-09-06T04:43:46.707Z,100221.63
2022-09-06T04:46:27.368Z,100231.13
2022-09-06T04:48:55.470Z,100230.13
2022-09-06T04:51:22.805Z,100230.00
2022-09-06T04:53:50.188Z,100237.06
2022-09-06T04:56:20.946Z,100237.06
2022-09-06T04:58:49.872Z,100237.97
2022-09-06T05:01:17.284Z,100235.72
2022-09-06T05:03:44.664Z,100235.00
2022-09-06T05:06:19.953Z,100236.41
2022-09-06T05:08:57.091Z,100246.03
2022-09-06T05:11:26.264Z,100239.75
2022-09-06T05:13:54.298Z,100241.66
2022-09-06T05:16:29.573Z,100238.81
2022-09-06T05:18:57.688Z,100237.09
2022-09-06T05:21:24.836Z,100238.19
2022-09-06T05:23:55.490Z,100233.75
2022-09-06T05:26:27.682Z,100230.53
2022-09-06T05:28:57.699Z,100233.00
2022-09-06T05:31:33.466Z,100232.63
2022-09-06T05:34:08.807Z,100235.50
2022-09-06T05:36:42.378Z,100235.63
2022-09-06T05:39:10.409Z,100226.84
2022-09-06T05:41:37.508Z,100226.06
2022-09-06T05:44:10.794Z,100230.31
2022-09-06T05:46:45.896Z,100235.34
2022-09-06T05:49:13.776Z,100246.16
2022-09-06T05:51:41.555Z,100245.50
2022-09-06T05:54:11.693Z,100241.47
2022-09-06T05:56:39.749Z,100249.53
2022-09-06T05:59:08.024Z,100242.00
2022-09-06T06:01:36.306Z,100238.19
2022-09-06T06:04:08.234Z,100243.34
2022-09-06T06:06:37.494Z,100244.03
2022-09-06T06:09:17.292Z,100253.59
2022-09-06T06:11:46.392Z,100248.06
2022-09-06T06:14:13.649Z,100248.00
2022-09-06T06:16:43.913Z,100250.59
2022-09-06T06:19:10.978Z,100245.72
2022-09-06T06:21:47.084Z,100232.06
2022-09-06T06:24:14.287Z,100244.84
2022-09-06T06:26:42.354Z,100234.50
2022-09-06T06:29:14.821Z,100232.97
2022-09-06T06:31:45.092Z,100226.66
2022-09-06T06:34:22.047Z,100227.81
2022-09-06T06:36:49.549Z,100227.22
2022-09-06T06:39:17.599Z,100223.50
2022-09-06T06:41:44.999Z,100229.25
2022-09-06T06:44:14.064Z,100224.22
2022-09-06T06:46:42.026Z,100232.19
2022-09-06T06:49:09.135Z,100226.91
2022-09-06T06:51:39.914Z,100223.34
2022-09-06T06:54:07.015Z,100227.06
2022-09-06T06:56:45.809Z,100228.53
2022-09-06T06:59:19.035Z,100227.53
2022-09-06T07:01:46.240Z,100231.44
2022-09-06T07:04:14.541Z,100222.44
2022-09-06T07:12:31.714Z,100236.25
2022-09-06T07:15:00.766Z,100244.28
2022-09-06T07:17:33.056Z,100248.81
2022-09-06T07:20:16.180Z,100248.22
2022-09-06T07:22:43.838Z,100236.91
2022-09-06T07:25:16.528Z,100239.88
2022-09-06T07:28:09.518Z,100239.38
2022-09-06T07:30:39.554Z,100243.94
2022-09-06T07:33:12.993Z,100249.19
2022-09-06T07:35:39.999Z,100252.63
2022-09-06T07:38:09.050Z,100250.38
2022-09-06T07:40:41.932Z,100243.66
2022-09-06T07:43:12.120Z,100247.56
2022-09-06T07:45:46.052Z,100255.56
2022-09-06T07:48:13.111Z,100255.69
2022-09-06T07:50:49.258Z,100267.75
2022-09-06T07:53:24.651Z,100265.88
2022-09-06T07:55:57.892Z,100260.50
2022-09-06T07:58:26.019Z,100258.22
2022-09-06T08:00:53.263Z,100262.63
2022-09-06T08:03:20.529Z,100260.06
2022-09-06T08:06:13.718Z,100253.91
2022-09-06T08:08:57.929Z,100259.50
2022-09-06T08:11:29.378Z,100269.16
2022-09-06T08:14:00.475Z,100265.22
2022-09-06T08:16:41.552Z,100263.69
2022-09-06T08:19:12.558Z,100268.56
2022-09-06T08:21:39.664Z,100266.88
2022-09-06T08:24:12.186Z,100266.91
2022-09-06T08:26:45.861Z,100253.78
2022-09-06T08:29:13.963Z,100256.34
2022-09-06T08:31:47.203Z,100256.50
2022-09-06T08:34:15.466Z,100246.88
2022-09-06T08:36:48.402Z,100261.16
2022-09-06T08:39:18.153Z,100254.84
2022-09-06T08:42:08.248Z,100251.63
2022-09-06T08:47:26.446Z,100251.88
2022-09-06T08:50:04.302Z,100245.06
2022-09-06T08:52:34.368Z,100238.31
2022-09-06T08:55:39.182Z,100233.72
2022-09-06T08:58:29.260Z,100219.66
2022-09-06T09:01:19.118Z,100231.78
2022-09-06T09:03:47.382Z,100219.97
2022-09-06T09:06:17.344Z,100225.75
2022-09-06T09:08:56.395Z,100223.63
2022-09-06T09:11:26.419Z,100232.44
2022-09-06T09:14:02.117Z,100214.91
2022-09-06T09:16:33.373Z,100214.16
2022-09-06T09:19:04.465Z,100225.53
2022-09-06T09:21:36.866Z,100221.88
2022-09-06T09:24:07.546Z,100224.28
2022-09-06T09:26:57.031Z,100203.69
2022-09-06T09:29:29.447Z,100214.81
2022-09-06T09:31:59.240Z,100209.72
2022-09-06T09:34:36.166Z,100206.59
2022-09-06T09:40:29.937Z,100196.72
2022-09-06T09:43:11.155Z,100189.75
2022-09-06T09:45:41.781Z,100184.19
2022-09-06T09:48:28.710Z,100186.63
2022-09-06T09:51:26.254Z,100188.84
2022-09-06T09:53:59.401Z,100192.03
2022-09-06T09:56:55.973Z,100189.78
2022-09-06T09:59:43.715Z,100179.25
2022-09-06T10:02:29.430Z,100174.31
2022-09-06T10:05:13.433Z,100177.03
2022-09-06T10:07:44.857Z,100171.72
2022-09-06T10:10:15.370Z,100172.66
2022-09-06T10:12:43.192Z,100169.44
2022-09-06T10:15:31.749Z,100166.97
2022-09-06T10:17:59.909Z,100161.41
2022-09-06T10:20:39.398Z,100163.16
2022-09-06T10:26:24.819Z,100169.88
2022-09-06T10:29:00.588Z,100171.72
2022-09-06T10:31:39.458Z,100169.63
2022-09-06T10:34:48.967Z,100175.03
2022-09-06T10:37:46.648Z,100174.81
2022-09-06T10:40:30.043Z,100174.00
2022-09-06T10:43:00.124Z,100174.28
2022-09-06T10:45:46.421Z,100156.78
2022-09-06T10:48:19.449Z,100155.84
2022-09-06T10:51:00.216Z,100144.03
2022-09-06T10:53:47.418Z,100137.41
2022-09-06T10:56:55.610Z,100141.03
2022-09-06T10:59:53.545Z,100129.06
2022-09-06T11:06:20.031Z,100123.69
2022-09-06T11:09:12.476Z,100112.34
2022-09-06T11:12:31.135Z,100130.50
2022-09-06T11:15:03.744Z,100115.97
2022-09-06T11:17:45.709Z,100111.84
2022-09-06T11:20:39.627Z,100109.06
2022-09-06T11:23:39.936Z,100110.22
2022-09-06T11:26:47.936Z,100103.91
2022-09-06T11:29:26.529Z,100096.31
2022-09-06T11:32:17.167Z,100094.44
2022-09-06T11:34:54.723Z,100087.78
2022-09-06T11:37:43.202Z,100086.97
2022-09-06T11:42:59.724Z,100094.63
2022-09-06T11:45:48.076Z,100092.75
2022-09-06T11:48:35.226Z,100082.13
2022-09-06T11:51:11.348Z,100081.47
2022-09-06T11:53:50.689Z,100072.28
2022-09-06T11:56:48.195Z,100074.69
2022-09-06T11:59:21.762Z,100066.19
2022-09-06T12:02:03.869Z,100063.28
2022-09-06T12:05:09.857Z,100056.19
2022-09-06T12:07:58.921Z,100051.91
2022-09-06T12:10:31.808Z,100056.56
2022-09-06T12:12:59.954Z,100056.16
2022-09-06T12:15:53.644Z,100053.94
2022-09-06T12:18:40.069Z,100047.50
2022-09-06T12:21:07.577Z,100052.94
2022-09-06T12:23:37.777Z,100055.66
2022-09-06T12:26:10.390Z,100054.72
2022-09-06T12:28:47.642Z,100046.44
2022-09-06T12:31:43.070Z,100040.78
2022-09-06T12:34:31.856Z,100033.53
2022-09-06T12:37:04.719Z,100035.81
2022-09-06T12:39:35.269Z,100026.47
2022-09-06T12:42:13.215Z,100030.59
2022-09-06T12:44:51.646Z,100026.34
2022-09-06T12:47:29.027Z,100025.81
2022-09-06T12:50:15.235Z,100028.53
2022-09-06T12:52:52.770Z,100019.72
2022-09-06T12:55:38.025Z,100018.59
2022-09-06T12:58:07.840Z,100011.69
2022-09-06T13:00:40.893Z,100021.56
2022-09-06T13:03:10.552Z,100011.94
2022-09-06T13:05:43.468Z,100007.69
2022-09-06T13:08:20.871Z,100003.28
2022-09-06T13:10:52.086Z,100002.56
2022-09-06T13:13:25.270Z,99993.88
2022-09-06T13:15:55.151Z,99983.72
2022-09-06T13:18:40.454Z,99991.72
2022-09-06T13:21:15.130Z,99984.00
2022-09-06T13:23:45.966Z,99983.56
2022-09-06T13:26:39.726Z,99982.66
2022-09-06T13:29:23.277Z,99979.75
2022-09-06T13:31:55.802Z,99985.75
2022-09-06T13:34:29.499Z,99980.97
2022-09-06T13:37:02.868Z,99982.38
2022-09-06T13:39:32.197Z,99980.22
2022-09-06T13:42:05.989Z,99978.59
2022-09-06T13:44:34.852Z,99977.22
2022-09-06T13:47:05.918Z,99966.75
2022-09-06T13:49:34.166Z,99977.03
2022-09-06T13:52:04.989Z,99970.63
2022-09-06T13:54:33.414Z,99969.03
2022-09-06T13:57:01.993Z,99959.47
2022-09-06T13:59:34.070Z,99971.09
2022-09-06T14:02:13.378Z,99967.19
2022-09-06T14:04:40.480Z,99949.53
2022-09-06T14:07:07.853Z,99963.31
2022-09-06T14:09:36.005Z,99957.03
2022-09-06T14:12:03.464Z,99961.41
2022-09-06T14:14:30.727Z,99957.69
2022-09-06T14:16:57.853Z,99963.56
2022-09-06T14:19:31.106Z,99962.16
2022-09-06T14:21:58.291Z,99962.22
2022-09-06T14:24:25.393Z,99951.28
2022-09-06T14:26:55.538Z,99947.59
2022-09-06T14:29:29.709Z,99941.75
2022-09-06T14:31:57.702Z,99938.31
2022-09-06T14:34:48.110Z,99929.75
2022-09-06T14:37:16.153Z,99932.06
2022-09-06T14:39:45.747Z,99936.69
2022-09-06T14:42:20.518Z,99939.28
2022-09-06T14:44:47.768Z,99939.56
2022-09-06T14:47:16.893Z,99927.06
2022-09-06T14:49:51.611Z,99931.56
2022-09-06T14:52:35.205Z,99928.81
2022-09-06T14:55:08.287Z,99923.97
2022-09-06T14:57:36.086Z,99920.00
2022-09-06T15:00:13.491Z,99918.78
2022-09-06T15:02:40.599Z,99922.97
2022-09-06T15:05:09.259Z,99910.50
2022-09-06T15:07:36.576Z,99914.91
2022-09-06T15:10:04.611Z,99905.66
2022-09-06T15:12:31.570Z,99906.81
2022-09-06T15:14:58.746Z,99907.91
2022-09-06T15:17:25.818Z,99906.06
2022-09-06T15:19:54.604Z,99904.41
2022-09-06T15:22:21.695Z,99912.53
2022-09-06T15:25:02.968Z,99900.75
2022-09-06T15:27:32.026Z,99910.66
2022-09-06T15:30:05.370Z,99906.56
2022-09-06T15:32:39.390Z,99899.38
2022-09-06T15:35:08.816Z,99901.91
2022-09-06T15:37:52.961Z,99902.63
2022-09-06T15:40:27.014Z,99904.53
2022-09-06T15:43:08.392Z,99900.91
2022-09-06T15:45:50.967Z,99903.44
2022-09-06T15:48:19.175Z,99900.50
2022-09-06T15:50:51.615Z,99894.16
2022-09-06T15:53:20.738Z,99892.19
2022-09-06T15:55:59.409Z,99890.69
2022-09-06T15:58:31.724Z,99888.81
2022-09-06T16:01:11.105Z,99889.09
2022-09-06T16:03:43.879Z,99895.78
2022-09-06T16:08:58.874Z,99888.88
2022-09-06T16:11:37.090Z,99885.41
2022-09-06T16:14:06.693Z,99875.97
2022-09-06T16:16:46.776Z,99871.34
2022-09-06T16:19:15.020Z,99871.72
2022-09-06T16:21:49.995Z,99869.78
2022-09-06T16:24:19.677Z,99875.94
2022-09-06T16:26:47.934Z,99870.59
2022-09-06T16:29:16.860Z,99870.53
2022-09-06T16:31:44.270Z,99872.44
2022-09-06T16:34:15.028Z,99866.91
2022-09-06T16:36:43.244Z,99871.84
2022-09-06T16:39:11.133Z,99870.94
2022-09-06T16:41:45.160Z,99875.38
2022-09-06T16:44:17.147Z,99873.41
2022-09-06T16:46:49.499Z,99876.94
2022-09-06T16:49:18.006Z,99884.66
2022-09-06T16:51:46.127Z,99879.81
2022-09-06T16:54:14.872Z,99878.34
2022-09-06T16:56:42.342Z,99880.91
2022-09-06T16:59:11.795Z,99882.00
2022-09-06T17:01:43.720Z,99873.25
2022-09-06T17:04:13.765Z,99870.97
2022-09-06T17:06:47.283Z,99868.75
2022-09-06T17:09:19.466Z,99855.59
2022-09-06T17:11:50.180Z,99855.09
2022-09-06T17:14:20.659Z,99855.56
2022-09-06T17:17:07.481Z,99859.56
2022-09-06T17:19:37.788Z,99862.16
2022-09-06T17:22:06.618Z,99860.03
2022-09-06T17:24:34.399Z,99862.00
2022-09-06T17:27:05.940Z,99861.44
2022-09-06T17:29:36.403Z,99865.88
2022-09-06T17:32:10.573Z,99862.09
2022-09-06T17:34:42.136Z,99867.41
2022-09-06T17:37:09.262Z,99871.41
2022-09-06T17:39:44.871Z,99868.97
2022-09-06T17:42:13.554Z,99868.22
2022-09-06T17:44:40.760Z,99873.94
2022-09-06T17:47:17.009Z,99871.97
2022-09-06T17:49:54.311Z,99878.06
2022-09-06T17:52:22.589Z,99881.59
2022-09-06T17:54:49.895Z,99878.75
2022-09-06T17:57:30.083Z,99879.81
2022-09-06T18:00:05.955Z,99876.31
2022-09-06T18:02:33.372Z,99878.31
2022-09-06T18:05:01.879Z,99896.19
2022-09-06T18:07:33.592Z,99899.03
2022-09-06T18:10:02.044Z,99891.59
2022-09-06T18:12:33.429Z,99885.63
2022-09-06T18:15:03.972Z,99882.22
2022-09-06T18:17:32.765Z,99887.25
2022-09-06T18:20:04.422Z,99887.47
2022-09-06T18:22:32.341Z,99885.31
2022-09-06T18:25:00.834Z,99895.41
2022-09-06T18:27:52.431Z,99901.72
2022-09-06T18:30:19.832Z,99899.25
2022-09-06T18:32:48.408Z,99902.47
2022-09-06T18:35:17.122Z,99905.47
2022-09-06T18:37:52.574Z,99901.16
2022-09-06T18:40:23.798Z,99898.50
2022-09-06T18:43:02.576Z,99896.28
2022-09-06T18:45:34.421Z,99902.28
2022-09-06T18:48:12.264Z,99907.28
2022-09-06T18:50:50.054Z,99911.38
2022-09-06T18:53:19.313Z,99909.31
2022-09-06T18:55:52.690Z,99905.13
2022-09-06T18:58:20.535Z,99907.47
2022-09-06T19:00:51.417Z,99900.63
2022-09-06T19:03:56.276Z,99903.41
2022-09-06T19:06:30.627Z,99897.22
2022-09-06T19:09:09.899Z,99893.69
2022-09-06T19:11:46.255Z,99901.59
2022-09-06T19:14:15.336Z,99899.38
2022-09-06T19:16:54.409Z,99899.25
2022-09-06T19:19:27.864Z,99893.44
2022-09-06T19:21:56.476Z,99888.22
2022-09-06T19:24:26.279Z,99887.03
2022-09-06T19:26:57.950Z,99887.44
2022-09-06T19:29:27.892Z,99884.69
2022-09-06T19:31:57.024Z,99882.94
2022-09-06T19:34:42.908Z,99884.38
2022-09-06T19:37:19.691Z,99885.09
2022-09-06T19:39:49.292Z,99888.75
2022-09-06T19:42:17.032Z,99890.38
2022-09-06T19:44:45.956Z,99888.56
2022-09-06T19:47:19.264Z,99893.63
2022-09-06T19:49:47.737Z,99887.56
2022-09-06T19:52:16.068Z,99884.22
2022-09-06T19:54:44.218Z,99878.88
2022-09-06T19:57:13.671Z,99886.59
2022-09-06T19:59:42.524Z,99878.13
2022-09-06T20:02:14.129Z,99872.41
2022-09-06T20:04:47.773Z,99875.66
2022-09-06T20:07:20.414Z,99876.41
2022-09-06T20:09:52.589Z,99878.13
2022-09-06T20:12:21.383Z,99876.41
2022-09-06T20:14:55.873Z,99868.22
2022-09-06T20:17:34.451Z,99857.59
2022-09-06T20:20:04.693Z,99852.88
2022-09-06T20:22:33.974Z,99860.63
2022-09-06T20:25:01.393Z,99853.25
2022-09-06T20:27:31.497Z,99857.69
2022-09-06T20:30:02.120Z,99855.41
2022-09-06T20:32:35.740Z,99861.91
2022-09-06T20:35:03.176Z,99856.72
2022-09-06T20:37:30.972Z,99860.66
2022-09-06T20:40:00.635Z,99861.88
2022-09-06T20:42:33.315Z,99857.69
2022-09-06T20:45:07.935Z,99866.66
2022-09-06T20:47:39.816Z,99865.63
2022-09-06T20:50:27.321Z,99873.28
2022-09-06T20:53:03.653Z,99870.69
2022-09-06T20:55:32.252Z,99880.22
2022-09-06T20:57:59.645Z,99860.84
2022-09-06T21:00:26.893Z,99863.03
2022-09-06T21:02:54.061Z,99861.72
2022-09-06T21:05:21.124Z,99860.00
2022-09-06T21:07:50.169Z,99856.19
2022-09-06T21:10:18.215Z,99843.41
2022-09-06T21:12:45.215Z,99852.47
2022-09-06T21:15:13.289Z,99849.06
2022-09-06T21:17:40.359Z,99838.66
2022-09-06T21:20:18.900Z,99843.81
2022-09-06T21:22:49.445Z,99842.47
2022-09-06T21:25:16.596Z,99850.28
2022-09-06T21:27:43.786Z,99846.47
2022-09-06T21:30:11.840Z,99850.84
2022-09-06T21:32:39.863Z,99844.16
2022-09-06T21:35:07.555Z,99842.81
2022-09-06T21:37:34.783Z,99846.25
2022-09-06T21:40:02.063Z,99835.59
2022-09-06T21:42:31.140Z,99856.75
2022-09-06T21:44:58.195Z,99849.69
2022-09-06T21:47:30.836Z,99855.78
2022-09-06T21:50:01.013Z,99862.09
2022-09-06T21:52:35.377Z,99856.09
2022-09-06T21:55:02.540Z,99857.13
2022-09-06T21:57:30.607Z,99842.63
2022-09-06T22:00:21.490Z,99845.09
2022-09-06T22:02:49.963Z,99841.84
2022-09-06T22:05:17.501Z,99836.09
2022-09-06T22:07:45.535Z,99845.13
2022-09-06T22:10:12.591Z,99838.19
2022-09-06T22:12:42.533Z,99839.09
2022-09-06T22:15:10.793Z,99839.50
2022-09-06T22:17:38.899Z,99825.66
2022-09-06T22:20:08.734Z,99822.59
2022-09-06T22:22:38.535Z,99834.53
2022-09-06T22:25:06.003Z,99832.31
2022-09-06T22:27:41.627Z,99814.81
2022-09-06T22:30:09.188Z,99821.97
2022-09-06T22:32:39.336Z,99820.84
2022-09-06T22:35:10.681Z,99828.31
2022-09-06T22:38:03.513Z,99827.38
2022-09-06T22:40:31.536Z,99831.56
2022-09-06T22:42:59.582Z,99831.56
2022-09-06T22:45:30.222Z,99834.50
2022-09-06T22:47:57.271Z,99823.22
2022-09-06T22:50:27.256Z,99823.69
2022-09-06T22:52:59.408Z,99828.75
2022-09-06T22:55:31.520Z,99823.88
2022-09-06T22:57:59.647Z,99824.91
2022-09-06T23:00:30.019Z,99824.22
2022-09-06T23:02:59.057Z,99826.72
2022-09-06T23:05:31.770Z,99835.81
2022-09-06T23:08:16.133Z,99818.81
2022-09-06T23:10:44.618Z,99810.31
2022-09-06T23:13:20.940Z,99821.22
2022-09-06T23:15:54.210Z,99823.03
2022-09-06T23:18:21.457Z,99825.69
2022-09-06T23:20:48.471Z,99827.25
2022-09-06T23:23:15.522Z,99830.66
2022-09-06T23:26:08.389Z,99817.47
2022-09-06T23:28:36.648Z,99817.41
2022-09-06T23:31:16.510Z,99817.41
2022-09-06T23:33:45.661Z,99809.84
2022-09-06T23:36:15.022Z,99809.84
2022-09-06T23:38:43.328Z,99797.56
2022-09-06T23:41:12.539Z,99796.78
2022-09-06T23:43:44.120Z,99798.81
2022-09-06T23:46:36.546Z,99811.53
2022-09-06T23:49:03.592Z,99804.50
2022-09-06T23:51:31.797Z,99799.19
2022-09-06T23:54:01.287Z,99797.00
2022-09-06T23:56:32.292Z,99798.63
2022-09-06T23:58:59.308Z,99791.91
